sensor_id;sensor_type;location;lat;lon;timestamp;temperature;humidity
61412;DHT22;47278;49.732;7.690;2023-02-28T00:00:31;-1.20;99.90
61412;DHT22;47278;49.732;7.690;2023-02-28T00:02:57;-1.30;99.90
61412;DHT22;47278;49.732;7.690;2023-02-28T00:05:23;-1.30;99.90
61412;DHT22;47278;49.732;7.690;2023-02-28T00:07:49;-1.30;99.90
61412;DHT22;47278;49.732;7.690;2023-02-28T00:10:16;-1.40;99.90
61412;DHT22;47278;49.732;7.690;2023-02-28T00:12:46;-1.40;99.90
61412;DHT22;47278;49.732;7.690;2023-02-28T00:15:12;-1.40;99.90
61412;DHT22;47278;49.732;7.690;2023-02-28T00:17:37;-1.70;99.90
61412;DHT22;47278;49.732;7.690;2023-02-28T00:20:04;-1.70;99.90
61412;DHT22;47278;49.732;7.690;2023-02-28T00:22:31;-1.60;99.90
61412;DHT22;47278;49.732;7.690;2023-02-28T00:24:57;-1.60;99.90
61412;DHT22;47278;49.732;7.690;2023-02-28T00:27:22;-1.70;99.90
61412;DHT22;47278;49.732;7.690;2023-02-28T00:29:48;-1.60;99.90
61412;DHT22;47278;49.732;7.690;2023-02-28T00:32:13;-1.70;99.90
61412;DHT22;47278;49.732;7.690;2023-02-28T00:34:39;-1.70;99.90
61412;DHT22;47278;49.732;7.690;2023-02-28T00:37:05;-1.40;99.90
61412;DHT22;47278;49.732;7.690;2023-02-28T00:39:31;-1.80;99.90
61412;DHT22;47278;49.732;7.690;2023-02-28T00:41:58;-1.70;99.90
61412;DHT22;47278;49.732;7.690;2023-02-28T00:44:23;-1.60;99.90
61412;DHT22;47278;49.732;7.690;2023-02-28T00:46:49;-1.50;99.90
61412;DHT22;47278;49.732;7.690;2023-02-28T00:49:14;-1.60;99.90
61412;DHT22;47278;49.732;7.690;2023-02-28T00:51:41;-1.60;99.90
61412;DHT22;47278;49.732;7.690;2023-02-28T00:54:07;-1.60;99.90
61412;DHT22;47278;49.732;7.690;2023-02-28T00:56:32;-1.50;99.90
61412;DHT22;47278;49.732;7.690;2023-02-28T00:58:58;-1.70;99.90
61412;DHT22;47278;49.732;7.690;2023-02-28T01:01:23;-1.70;99.90
61412;DHT22;47278;49.732;7.690;2023-02-28T01:03:49;-1.80;99.90
61412;DHT22;47278;49.732;7.690;2023-02-28T01:06:14;-1.70;99.90
61412;DHT22;47278;49.732;7.690;2023-02-28T01:08:40;-1.90;99.90
61412;DHT22;47278;49.732;7.690;2023-02-28T01:11:12;-1.90;99.90
61412;DHT22;47278;49.732;7.690;2023-02-28T01:13:39;-1.80;99.90
61412;DHT22;47278;49.732;7.690;2023-02-28T01:16:05;-1.70;99.90
61412;DHT22;47278;49.732;7.690;2023-02-28T01:18:30;-1.80;99.90
61412;DHT22;47278;49.732;7.690;2023-02-28T01:20:56;-1.90;99.90
61412;DHT22;47278;49.732;7.690;2023-02-28T01:23:22;-1.60;99.90
61412;DHT22;47278;49.732;7.690;2023-02-28T01:25:49;-1.40;99.90
61412;DHT22;47278;49.732;7.690;2023-02-28T01:28:14;-1.80;99.90
61412;DHT22;47278;49.732;7.690;2023-02-28T01:30:40;-1.70;99.90
61412;DHT22;47278;49.732;7.690;2023-02-28T01:33:05;-1.70;99.90
61412;DHT22;47278;49.732;7.690;2023-02-28T01:35:35;-1.40;99.90
61412;DHT22;47278;49.732;7.690;2023-02-28T01:38:01;-2.00;99.90
61412;DHT22;47278;49.732;7.690;2023-02-28T01:40:26;-1.80;99.90
61412;DHT22;47278;49.732;7.690;2023-02-28T01:42:52;-1.80;99.90
61412;DHT22;47278;49.732;7.690;2023-02-28T01:45:30;-1.90;99.90
61412;DHT22;47278;49.732;7.690;2023-02-28T01:48:04;-1.80;99.90
61412;DHT22;47278;49.732;7.690;2023-02-28T01:50:31;-1.70;99.90
61412;DHT22;47278;49.732;7.690;2023-02-28T01:53:00;-1.70;99.90
61412;DHT22;47278;49.732;7.690;2023-02-28T01:55:27;-1.70;99.90
61412;DHT22;47278;49.732;7.690;2023-02-28T01:57:55;-1.70;99.90
61412;DHT22;47278;49.732;7.690;2023-02-28T02:00:22;-0.10;99.90
61412;DHT22;47278;49.732;7.690;2023-02-28T02:02:49;-1.70;99.90
61412;DHT22;47278;49.732;7.690;2023-02-28T02:05:23;-1.80;99.90
61412;DHT22;47278;49.732;7.690;2023-02-28T02:07:50;-1.90;99.90
61412;DHT22;47278;49.732;7.690;2023-02-28T02:10:21;-1.90;99.90
61412;DHT22;47278;49.732;7.690;2023-02-28T02:17:48;-1.80;99.90
61412;DHT22;47278;49.732;7.690;2023-02-28T02:20:24;-2.00;99.90
61412;DHT22;47278;49.732;7.690;2023-02-28T02:25:25;-2.20;99.90
61412;DHT22;47278;49.732;7.690;2023-02-28T02:33:29;-2.30;99.90
61412;DHT22;47278;49.732;7.690;2023-02-28T02:36:13;-2.20;99.90
61412;DHT22;47278;49.732;7.690;2023-02-28T02:39:02;-2.30;99.90
61412;DHT22;47278;49.732;7.690;2023-02-28T02:41:45;-2.10;99.90
61412;DHT22;47278;49.732;7.690;2023-02-28T02:44:20;-2.30;99.90
61412;DHT22;47278;49.732;7.690;2023-02-28T02:46:47;-2.40;99.90
61412;DHT22;47278;49.732;7.690;2023-02-28T02:49:19;-2.40;99.90
61412;DHT22;47278;49.732;7.690;2023-02-28T02:51:46;-2.40;99.90
61412;DHT22;47278;49.732;7.690;2023-02-28T02:54:13;-2.50;99.90
61412;DHT22;47278;49.732;7.690;2023-02-28T02:56:41;-2.50;99.90
61412;DHT22;47278;49.732;7.690;2023-02-28T02:59:09;-2.40;99.90
61412;DHT22;47278;49.732;7.690;2023-02-28T03:01:36;-2.40;99.90
61412;DHT22;47278;49.732;7.690;2023-02-28T03:04:04;-2.50;99.90
61412;DHT22;47278;49.732;7.690;2023-02-28T03:06:31;-2.50;99.90
61412;DHT22;47278;49.732;7.690;2023-02-28T03:08:56;-2.50;99.90
61412;DHT22;47278;49.732;7.690;2023-02-28T03:11:22;-2.10;99.90
61412;DHT22;47278;49.732;7.690;2023-02-28T03:26:39;-2.50;99.90
61412;DHT22;47278;49.732;7.690;2023-02-28T03:29:13;-2.50;99.90
61412;DHT22;47278;49.732;7.690;2023-02-28T03:31:49;-2.50;99.90
61412;DHT22;47278;49.732;7.690;2023-02-28T03:34:23;-2.40;99.90
61412;DHT22;47278;49.732;7.690;2023-02-28T03:36:51;-2.50;99.90
61412;DHT22;47278;49.732;7.690;2023-02-28T03:39:29;-2.40;99.90
61412;DHT22;47278;49.732;7.690;2023-02-28T03:42:00;-2.60;99.90
61412;DHT22;47278;49.732;7.690;2023-02-28T03:49:24;-2.60;99.90
61412;DHT22;47278;49.732;7.690;2023-02-28T03:51:52;-2.50;99.90
61412;DHT22;47278;49.732;7.690;2023-02-28T03:54:20;-2.50;99.90
61412;DHT22;47278;49.732;7.690;2023-02-28T03:56:52;-2.40;99.90
61412;DHT22;47278;49.732;7.690;2023-02-28T03:59:26;-2.40;99.90
61412;DHT22;47278;49.732;7.690;2023-02-28T04:01:53;-2.60;99.90
61412;DHT22;47278;49.732;7.690;2023-02-28T04:04:20;-2.50;99.90
61412;DHT22;47278;49.732;7.690;2023-02-28T04:06:46;-2.60;99.90
61412;DHT22;47278;49.732;7.690;2023-02-28T04:09:14;-2.20;99.90
61412;DHT22;47278;49.732;7.690;2023-02-28T04:11:42;-2.50;99.90
61412;DHT22;47278;49.732;7.690;2023-02-28T04:14:08;-2.60;99.90
61412;DHT22;47278;49.732;7.690;2023-02-28T04:16:36;-2.60;99.90
61412;DHT22;47278;49.732;7.690;2023-02-28T04:19:02;-1.70;99.90
61412;DHT22;47278;49.732;7.690;2023-02-28T04:21:30;-2.30;99.90
61412;DHT22;47278;49.732;7.690;2023-02-28T04:23:56;-2.60;99.90
61412;DHT22;47278;49.732;7.690;2023-02-28T04:26:36;-2.50;99.90
61412;DHT22;47278;49.732;7.690;2023-02-28T04:29:02;-2.60;99.90
61412;DHT22;47278;49.732;7.690;2023-02-28T04:31:28;-2.60;99.90
61412;DHT22;47278;49.732;7.690;2023-02-28T04:33:54;-2.50;99.90
61412;DHT22;47278;49.732;7.690;2023-02-28T04:36:19;-2.50;99.90
61412;DHT22;47278;49.732;7.690;2023-02-28T04:38:45;-2.40;99.90
61412;DHT22;47278;49.732;7.690;2023-02-28T04:41:11;-2.60;99.90
61412;DHT22;47278;49.732;7.690;2023-02-28T04:43:37;-2.70;99.90
61412;DHT22;47278;49.732;7.690;2023-02-28T04:46:03;-2.70;99.90
61412;DHT22;47278;49.732;7.690;2023-02-28T04:48:30;-2.60;99.90
61412;DHT22;47278;49.732;7.690;2023-02-28T04:50:59;-2.50;99.90
61412;DHT22;47278;49.732;7.690;2023-02-28T04:53:25;-3.30;99.90
61412;DHT22;47278;49.732;7.690;2023-02-28T04:55:50;-0.40;99.90
61412;DHT22;47278;49.732;7.690;2023-02-28T04:58:16;-2.60;99.90
61412;DHT22;47278;49.732;7.690;2023-02-28T05:00:42;-2.60;99.90
61412;DHT22;47278;49.732;7.690;2023-02-28T05:03:07;-2.60;99.90
61412;DHT22;47278;49.732;7.690;2023-02-28T05:05:33;-2.50;99.90
61412;DHT22;47278;49.732;7.690;2023-02-28T05:07:58;-2.50;99.90
61412;DHT22;47278;49.732;7.690;2023-02-28T05:10:24;-2.60;99.90
61412;DHT22;47278;49.732;7.690;2023-02-28T05:12:50;-2.50;99.90
61412;DHT22;47278;49.732;7.690;2023-02-28T05:15:16;-2.40;99.90
61412;DHT22;47278;49.732;7.690;2023-02-28T05:17:42;-2.30;99.90
61412;DHT22;47278;49.732;7.690;2023-02-28T05:20:08;-2.20;99.90
61412;DHT22;47278;49.732;7.690;2023-02-28T05:22:36;-2.10;99.90
61412;DHT22;47278;49.732;7.690;2023-02-28T05:25:02;-2.10;99.90
61412;DHT22;47278;49.732;7.690;2023-02-28T05:27:28;-2.10;99.90
61412;DHT22;47278;49.732;7.690;2023-02-28T05:29:53;-2.30;99.90
61412;DHT22;47278;49.732;7.690;2023-02-28T05:32:19;-2.10;99.90
61412;DHT22;47278;49.732;7.690;2023-02-28T05:34:44;-2.10;99.90
61412;DHT22;47278;49.732;7.690;2023-02-28T05:37:13;-2.50;99.90
61412;DHT22;47278;49.732;7.690;2023-02-28T05:39:40;-2.50;99.90
61412;DHT22;47278;49.732;7.690;2023-02-28T05:42:05;-2.60;99.90
61412;DHT22;47278;49.732;7.690;2023-02-28T05:44:31;-2.60;99.90
61412;DHT22;47278;49.732;7.690;2023-02-28T05:46:57;-2.60;99.90
61412;DHT22;47278;49.732;7.690;2023-02-28T05:49:23;-2.80;99.90
61412;DHT22;47278;49.732;7.690;2023-02-28T05:51:48;-2.70;99.90
61412;DHT22;47278;49.732;7.690;2023-02-28T05:54:14;-2.70;99.90
61412;DHT22;47278;49.732;7.690;2023-02-28T05:56:39;-2.70;99.90
61412;DHT22;47278;49.732;7.690;2023-02-28T05:59:06;-5.40;99.90
61412;DHT22;47278;49.732;7.690;2023-02-28T06:01:33;-2.80;99.90
61412;DHT22;47278;49.732;7.690;2023-02-28T06:03:59;-2.90;99.90
61412;DHT22;47278;49.732;7.690;2023-02-28T06:06:25;-2.80;99.90
61412;DHT22;47278;49.732;7.690;2023-02-28T06:08:51;-2.80;99.90
61412;DHT22;47278;49.732;7.690;2023-02-28T06:11:16;-2.80;99.90
61412;DHT22;47278;49.732;7.690;2023-02-28T06:13:42;-2.80;99.90
61412;DHT22;47278;49.732;7.690;2023-02-28T06:16:09;-2.70;99.90
61412;DHT22;47278;49.732;7.690;2023-02-28T06:18:35;-2.70;99.90
61412;DHT22;47278;49.732;7.690;2023-02-28T06:21:01;-2.80;99.90
61412;DHT22;47278;49.732;7.690;2023-02-28T06:23:26;-2.70;99.90
61412;DHT22;47278;49.732;7.690;2023-02-28T06:25:52;-2.70;99.90
61412;DHT22;47278;49.732;7.690;2023-02-28T06:28:18;-2.70;99.90
61412;DHT22;47278;49.732;7.690;2023-02-28T06:30:44;-2.90;99.90
61412;DHT22;47278;49.732;7.690;2023-02-28T06:33:10;-2.70;99.90
61412;DHT22;47278;49.732;7.690;2023-02-28T06:35:35;-2.50;99.90
61412;DHT22;47278;49.732;7.690;2023-02-28T06:38:01;-2.50;99.90
61412;DHT22;47278;49.732;7.690;2023-02-28T06:40:27;-2.50;99.90
61412;DHT22;47278;49.732;7.690;2023-02-28T06:42:52;-2.50;99.90
61412;DHT22;47278;49.732;7.690;2023-02-28T06:45:18;-2.50;99.90
61412;DHT22;47278;49.732;7.690;2023-02-28T06:47:43;-2.40;99.90
61412;DHT22;47278;49.732;7.690;2023-02-28T06:50:10;-2.40;99.90
61412;DHT22;47278;49.732;7.690;2023-02-28T06:52:36;-2.40;99.90
61412;DHT22;47278;49.732;7.690;2023-02-28T06:55:03;-2.40;99.90
61412;DHT22;47278;49.732;7.690;2023-02-28T06:57:29;-2.40;99.90
61412;DHT22;47278;49.732;7.690;2023-02-28T06:59:58;-2.30;99.90
61412;DHT22;47278;49.732;7.690;2023-02-28T07:02:24;-2.30;99.90
61412;DHT22;47278;49.732;7.690;2023-02-28T07:04:50;-2.20;99.90
61412;DHT22;47278;49.732;7.690;2023-02-28T07:07:16;-2.10;99.90
61412;DHT22;47278;49.732;7.690;2023-02-28T07:09:42;-1.80;99.90
61412;DHT22;47278;49.732;7.690;2023-02-28T07:12:07;-1.80;99.90
61412;DHT22;47278;49.732;7.690;2023-02-28T07:14:33;-1.60;99.90
61412;DHT22;47278;49.732;7.690;2023-02-28T07:16:58;-1.20;99.90
61412;DHT22;47278;49.732;7.690;2023-02-28T07:19:24;-1.00;99.90
61412;DHT22;47278;49.732;7.690;2023-02-28T07:21:49;-0.80;99.90
61412;DHT22;47278;49.732;7.690;2023-02-28T07:24:15;-3.00;99.90
61412;DHT22;47278;49.732;7.690;2023-02-28T07:26:43;-0.60;99.90
61412;DHT22;47278;49.732;7.690;2023-02-28T07:29:08;-0.40;99.90
61412;DHT22;47278;49.732;7.690;2023-02-28T07:31:34;-0.30;99.90
61412;DHT22;47278;49.732;7.690;2023-02-28T07:33:59;-0.20;99.90
61412;DHT22;47278;49.732;7.690;2023-02-28T07:36:25;-0.10;99.90
61412;DHT22;47278;49.732;7.690;2023-02-28T07:38:51;-0.10;99.90
61412;DHT22;47278;49.732;7.690;2023-02-28T07:41:17;0.00;99.90
61412;DHT22;47278;49.732;7.690;2023-02-28T07:43:43;0.10;99.90
61412;DHT22;47278;49.732;7.690;2023-02-28T07:46:10;0.10;99.90
61412;DHT22;47278;49.732;7.690;2023-02-28T07:48:36;0.00;99.90
61412;DHT22;47278;49.732;7.690;2023-02-28T07:51:02;0.00;99.90
61412;DHT22;47278;49.732;7.690;2023-02-28T07:53:28;0.10;99.90
61412;DHT22;47278;49.732;7.690;2023-02-28T07:55:55;0.10;99.90
61412;DHT22;47278;49.732;7.690;2023-02-28T07:58:20;0.20;99.90
61412;DHT22;47278;49.732;7.690;2023-02-28T08:00:46;0.30;99.90
61412;DHT22;47278;49.732;7.690;2023-02-28T08:03:11;0.60;99.90
61412;DHT22;47278;49.732;7.690;2023-02-28T08:05:40;0.40;99.90
61412;DHT22;47278;49.732;7.690;2023-02-28T08:08:06;0.50;99.90
61412;DHT22;47278;49.732;7.690;2023-02-28T08:10:32;0.60;99.90
61412;DHT22;47278;49.732;7.690;2023-02-28T08:12:57;0.60;99.90
61412;DHT22;47278;49.732;7.690;2023-02-28T08:15:23;0.70;99.90
61412;DHT22;47278;49.732;7.690;2023-02-28T08:17:48;0.70;99.90
61412;DHT22;47278;49.732;7.690;2023-02-28T08:20:14;0.80;99.90
61412;DHT22;47278;49.732;7.690;2023-02-28T08:22:40;0.80;99.90
61412;DHT22;47278;49.732;7.690;2023-02-28T08:25:07;0.90;99.90
61412;DHT22;47278;49.732;7.690;2023-02-28T08:27:33;1.00;99.90
61412;DHT22;47278;49.732;7.690;2023-02-28T08:29:58;1.20;99.90
61412;DHT22;47278;49.732;7.690;2023-02-28T08:32:24;1.30;99.90
61412;DHT22;47278;49.732;7.690;2023-02-28T08:34:49;0.20;99.90
61412;DHT22;47278;49.732;7.690;2023-02-28T08:37:18;1.60;99.90
61412;DHT22;47278;49.732;7.690;2023-02-28T08:39:43;1.70;99.90
61412;DHT22;47278;49.732;7.690;2023-02-28T08:42:09;1.70;99.90
61412;DHT22;47278;49.732;7.690;2023-02-28T08:44:34;1.70;99.90
61412;DHT22;47278;49.732;7.690;2023-02-28T08:47:00;1.80;99.90
61412;DHT22;47278;49.732;7.690;2023-02-28T08:49:25;1.90;99.90
61412;DHT22;47278;49.732;7.690;2023-02-28T08:51:51;1.90;99.90
61412;DHT22;47278;49.732;7.690;2023-02-28T08:54:17;1.90;99.90
61412;DHT22;47278;49.732;7.690;2023-02-28T08:56:45;2.00;99.90
61412;DHT22;47278;49.732;7.690;2023-02-28T08:59:10;2.00;99.90
61412;DHT22;47278;49.732;7.690;2023-02-28T09:01:36;2.10;99.90
61412;DHT22;47278;49.732;7.690;2023-02-28T09:04:02;2.10;99.90
61412;DHT22;47278;49.732;7.690;2023-02-28T09:06:27;2.20;99.90
61412;DHT22;47278;49.732;7.690;2023-02-28T09:08:56;2.50;99.90
61412;DHT22;47278;49.732;7.690;2023-02-28T09:11:23;2.40;99.90
61412;DHT22;47278;49.732;7.690;2023-02-28T09:13:49;2.40;99.90
61412;DHT22;47278;49.732;7.690;2023-02-28T09:16:15;2.40;99.90
61412;DHT22;47278;49.732;7.690;2023-02-28T09:18:41;2.50;99.90
61412;DHT22;47278;49.732;7.690;2023-02-28T09:21:08;2.40;99.90
61412;DHT22;47278;49.732;7.690;2023-02-28T09:23:34;2.60;99.90
61412;DHT22;47278;49.732;7.690;2023-02-28T09:26:00;2.60;99.90
61412;DHT22;47278;49.732;7.690;2023-02-28T09:28:26;2.70;99.90
61412;DHT22;47278;49.732;7.690;2023-02-28T09:30:52;2.80;99.90
61412;DHT22;47278;49.732;7.690;2023-02-28T09:33:18;2.70;99.90
61412;DHT22;47278;49.732;7.690;2023-02-28T09:35:49;2.90;99.90
61412;DHT22;47278;49.732;7.690;2023-02-28T09:38:15;3.10;99.90
61412;DHT22;47278;49.732;7.690;2023-02-28T09:40:47;0.50;99.90
61412;DHT22;47278;49.732;7.690;2023-02-28T09:43:14;4.00;99.90
61412;DHT22;47278;49.732;7.690;2023-02-28T09:45:41;4.60;99.90
61412;DHT22;47278;49.732;7.690;2023-02-28T09:48:23;4.50;99.90
61412;DHT22;47278;49.732;7.690;2023-02-28T09:50:51;4.80;99.90
61412;DHT22;47278;49.732;7.690;2023-02-28T09:53:31;4.90;99.90
61412;DHT22;47278;49.732;7.690;2023-02-28T09:56:07;5.00;99.90
61412;DHT22;47278;49.732;7.690;2023-02-28T09:58:40;5.20;99.90
61412;DHT22;47278;49.732;7.690;2023-02-28T10:04:16;5.20;99.90
61412;DHT22;47278;49.732;7.690;2023-02-28T10:06:39;5.40;99.90
61412;DHT22;47278;49.732;7.690;2023-02-28T10:09:17;5.40;99.90
61412;DHT22;47278;49.732;7.690;2023-02-28T10:11:44;5.40;99.90
61412;DHT22;47278;49.732;7.690;2023-02-28T10:21:57;5.40;99.90
61412;DHT22;47278;49.732;7.690;2023-02-28T10:24:31;5.30;99.90
61412;DHT22;47278;49.732;7.690;2023-02-28T10:27:04;5.40;99.90
61412;DHT22;47278;49.732;7.690;2023-02-28T10:29:36;5.30;99.90
61412;DHT22;47278;49.732;7.690;2023-02-28T10:32:02;5.10;99.90
61412;DHT22;47278;49.732;7.690;2023-02-28T10:34:29;5.10;99.90
61412;DHT22;47278;49.732;7.690;2023-02-28T10:36:54;5.20;99.90
61412;DHT22;47278;49.732;7.690;2023-02-28T10:39:34;5.40;99.90
61412;DHT22;47278;49.732;7.690;2023-02-28T10:41:59;5.60;99.90
61412;DHT22;47278;49.732;7.690;2023-02-28T10:44:25;5.60;99.90
61412;DHT22;47278;49.732;7.690;2023-02-28T10:46:51;5.50;99.90
61412;DHT22;47278;49.732;7.690;2023-02-28T10:49:17;5.90;99.90
61412;DHT22;47278;49.732;7.690;2023-02-28T10:51:45;5.80;99.90
61412;DHT22;47278;49.732;7.690;2023-02-28T10:54:14;5.70;99.90
61412;DHT22;47278;49.732;7.690;2023-02-28T10:56:40;5.50;99.90
61412;DHT22;47278;49.732;7.690;2023-02-28T11:01:41;5.70;99.90
61412;DHT22;47278;49.732;7.690;2023-02-28T11:06:56;5.60;99.90
61412;DHT22;47278;49.732;7.690;2023-02-28T11:09:45;5.90;99.90
61412;DHT22;47278;49.732;7.690;2023-02-28T11:12:23;6.50;99.90
61412;DHT22;47278;49.732;7.690;2023-02-28T11:14:51;6.90;99.90
61412;DHT22;47278;49.732;7.690;2023-02-28T11:17:22;7.20;99.90
61412;DHT22;47278;49.732;7.690;2023-02-28T11:19:49;6.70;99.90
61412;DHT22;47278;49.732;7.690;2023-02-28T11:22:20;7.00;99.90
61412;DHT22;47278;49.732;7.690;2023-02-28T11:24:48;6.60;99.90
61412;DHT22;47278;49.732;7.690;2023-02-28T11:30:23;6.80;99.90
61412;DHT22;47278;49.732;7.690;2023-02-28T11:32:49;5.70;99.90
61412;DHT22;47278;49.732;7.690;2023-02-28T11:35:17;5.80;99.90
61412;DHT22;47278;49.732;7.690;2023-02-28T11:37:47;6.10;99.90
61412;DHT22;47278;49.732;7.690;2023-02-28T11:40:17;6.80;99.90
61412;DHT22;47278;49.732;7.690;2023-02-28T11:45:30;6.80;99.90
61412;DHT22;47278;49.732;7.690;2023-02-28T11:52:59;6.20;99.90
61412;DHT22;47278;49.732;7.690;2023-02-28T12:05:21;6.30;99.90
61412;DHT22;47278;49.732;7.690;2023-02-28T12:15:43;6.90;99.90
61412;DHT22;47278;49.732;7.690;2023-02-28T12:28:38;7.10;99.90
61412;DHT22;47278;49.732;7.690;2023-02-28T12:31:08;7.30;99.90
61412;DHT22;47278;49.732;7.690;2023-02-28T12:33:36;7.50;99.90
61412;DHT22;47278;49.732;7.690;2023-02-28T12:36:11;7.60;99.90
61412;DHT22;47278;49.732;7.690;2023-02-28T12:38:39;7.30;99.90
61412;DHT22;47278;49.732;7.690;2023-02-28T12:43:42;7.10;99.90
61412;DHT22;47278;49.732;7.690;2023-02-28T12:46:11;7.30;99.90
61412;DHT22;47278;49.732;7.690;2023-02-28T12:51:04;7.60;99.90
61412;DHT22;47278;49.732;7.690;2023-02-28T12:53:35;7.60;99.90
61412;DHT22;47278;49.732;7.690;2023-02-28T12:58:48;8.00;99.90
61412;DHT22;47278;49.732;7.690;2023-02-28T13:03:59;7.70;99.90
61412;DHT22;47278;49.732;7.690;2023-02-28T13:06:35;8.00;99.90
61412;DHT22;47278;49.732;7.690;2023-02-28T13:09:09;7.70;99.90
61412;DHT22;47278;49.732;7.690;2023-02-28T13:14:05;7.90;99.90
61412;DHT22;47278;49.732;7.690;2023-02-28T13:16:52;7.90;99.90
61412;DHT22;47278;49.732;7.690;2023-02-28T13:19:20;8.00;99.90
61412;DHT22;47278;49.732;7.690;2023-02-28T13:21:46;8.20;99.90
61412;DHT22;47278;49.732;7.690;2023-02-28T13:24:37;7.90;99.90
61412;DHT22;47278;49.732;7.690;2023-02-28T13:27:10;8.10;99.90
61412;DHT22;47278;49.732;7.690;2023-02-28T13:29:40;7.90;99.90
61412;DHT22;47278;49.732;7.690;2023-02-28T13:34:36;8.30;99.90
61412;DHT22;47278;49.732;7.690;2023-02-28T13:47:42;8.10;99.90
61412;DHT22;47278;49.732;7.690;2023-02-28T14:00:28;8.20;99.90
61412;DHT22;47278;49.732;7.690;2023-02-28T14:03:06;8.50;99.90
61412;DHT22;47278;49.732;7.690;2023-02-28T14:05:36;8.60;99.90
61412;DHT22;47278;49.732;7.690;2023-02-28T14:08:08;8.70;99.90
61412;DHT22;47278;49.732;7.690;2023-02-28T14:10:45;8.40;99.90
61412;DHT22;47278;49.732;7.690;2023-02-28T14:21:26;8.50;99.90
61412;DHT22;47278;49.732;7.690;2023-02-28T14:34:35;8.80;99.90
61412;DHT22;47278;49.732;7.690;2023-02-28T14:37:02;8.90;99.90
61412;DHT22;47278;49.732;7.690;2023-02-28T14:39:28;9.10;99.90
61412;DHT22;47278;49.732;7.690;2023-02-28T14:41:58;8.90;99.90
61412;DHT22;47278;49.732;7.690;2023-02-28T14:44:28;9.10;99.90
61412;DHT22;47278;49.732;7.690;2023-02-28T14:46:55;9.20;99.90
61412;DHT22;47278;49.732;7.690;2023-02-28T14:49:23;9.60;99.90
61412;DHT22;47278;49.732;7.690;2023-02-28T14:52:01;10.80;99.90
61412;DHT22;47278;49.732;7.690;2023-02-28T14:54:27;12.10;99.90
61412;DHT22;47278;49.732;7.690;2023-02-28T14:56:53;13.00;99.90
61412;DHT22;47278;49.732;7.690;2023-02-28T14:59:27;13.70;99.90
61412;DHT22;47278;49.732;7.690;2023-02-28T15:02:12;14.70;99.90
61412;DHT22;47278;49.732;7.690;2023-02-28T15:04:38;14.80;98.50
61412;DHT22;47278;49.732;7.690;2023-02-28T15:07:06;14.50;96.00
61412;DHT22;47278;49.732;7.690;2023-02-28T15:09:32;15.10;96.90
61412;DHT22;47278;49.732;7.690;2023-02-28T15:11:57;15.00;94.90
61412;DHT22;47278;49.732;7.690;2023-02-28T15:14:23;14.70;94.30
61412;DHT22;47278;49.732;7.690;2023-02-28T15:16:54;15.30;93.30
61412;DHT22;47278;49.732;7.690;2023-02-28T15:21:55;14.50;92.60
61412;DHT22;47278;49.732;7.690;2023-02-28T15:24:44;14.70;91.90
61412;DHT22;47278;49.732;7.690;2023-02-28T15:27:29;14.80;91.80
61412;DHT22;47278;49.732;7.690;2023-02-28T15:30:00;14.60;92.10
61412;DHT22;47278;49.732;7.690;2023-02-28T15:32:31;14.50;91.10
61412;DHT22;47278;49.732;7.690;2023-02-28T15:34:57;14.70;91.10
61412;DHT22;47278;49.732;7.690;2023-02-28T15:39:52;15.40;90.10
61412;DHT22;47278;49.732;7.690;2023-02-28T15:42:19;14.40;90.70
61412;DHT22;47278;49.732;7.690;2023-02-28T15:44:47;13.60;91.20
61412;DHT22;47278;49.732;7.690;2023-02-28T15:47:19;13.60;90.80
61412;DHT22;47278;49.732;7.690;2023-02-28T15:49:50;12.60;91.90
61412;DHT22;47278;49.732;7.690;2023-02-28T15:52:59;12.90;92.20
61412;DHT22;47278;49.732;7.690;2023-02-28T15:55:10;12.70;92.20
61412;DHT22;47278;49.732;7.690;2023-02-28T15:57:38;12.70;91.60
61412;DHT22;47278;49.732;7.690;2023-02-28T16:00:04;10.80;92.60
61412;DHT22;47278;49.732;7.690;2023-02-28T16:02:38;9.80;93.90
61412;DHT22;47278;49.732;7.690;2023-02-28T16:07:32;10.10;94.60
61412;DHT22;47278;49.732;7.690;2023-02-28T16:09:58;10.20;94.10
61412;DHT22;47278;49.732;7.690;2023-02-28T16:12:25;9.80;95.00
61412;DHT22;47278;49.732;7.690;2023-02-28T16:14:51;10.20;95.00
61412;DHT22;47278;49.732;7.690;2023-02-28T16:17:28;10.70;94.50
61412;DHT22;47278;49.732;7.690;2023-02-28T16:19:54;10.00;94.00
61412;DHT22;47278;49.732;7.690;2023-02-28T16:22:20;8.10;96.30
61412;DHT22;47278;49.732;7.690;2023-02-28T16:24:45;7.10;97.40
61412;DHT22;47278;49.732;7.690;2023-02-28T16:27:15;6.50;98.40
61412;DHT22;47278;49.732;7.690;2023-02-28T16:29:41;6.10;99.50
61412;DHT22;47278;49.732;7.690;2023-02-28T16:32:07;5.80;99.80
61412;DHT22;47278;49.732;7.690;2023-02-28T16:34:33;5.80;99.90
61412;DHT22;47278;49.732;7.690;2023-02-28T16:36:58;5.50;99.90
61412;DHT22;47278;49.732;7.690;2023-02-28T16:39:24;5.40;99.90
61412;DHT22;47278;49.732;7.690;2023-02-28T16:41:50;5.30;99.90
61412;DHT22;47278;49.732;7.690;2023-02-28T16:44:29;5.10;99.90
61412;DHT22;47278;49.732;7.690;2023-02-28T16:46:56;4.90;99.90
61412;DHT22;47278;49.732;7.690;2023-02-28T16:49:21;4.90;99.90
61412;DHT22;47278;49.732;7.690;2023-02-28T16:51:47;4.80;99.90
61412;DHT22;47278;49.732;7.690;2023-02-28T16:54:13;4.60;99.90
61412;DHT22;47278;49.732;7.690;2023-02-28T16:56:39;4.40;99.90
61412;DHT22;47278;49.732;7.690;2023-02-28T16:59:07;4.20;99.90
61412;DHT22;47278;49.732;7.690;2023-02-28T17:01:33;4.10;99.90
61412;DHT22;47278;49.732;7.690;2023-02-28T17:03:59;4.00;99.90
61412;DHT22;47278;49.732;7.690;2023-02-28T17:06:26;4.00;99.90
61412;DHT22;47278;49.732;7.690;2023-02-28T17:08:53;3.80;99.90
61412;DHT22;47278;49.732;7.690;2023-02-28T17:11:19;3.60;99.90
61412;DHT22;47278;49.732;7.690;2023-02-28T17:13:44;3.60;99.90
61412;DHT22;47278;49.732;7.690;2023-02-28T17:16:21;3.40;99.90
61412;DHT22;47278;49.732;7.690;2023-02-28T17:18:47;3.10;99.90
61412;DHT22;47278;49.732;7.690;2023-02-28T17:21:14;3.00;99.90
61412;DHT22;47278;49.732;7.690;2023-02-28T17:23:40;2.80;99.90
61412;DHT22;47278;49.732;7.690;2023-02-28T17:26:05;2.70;99.90
61412;DHT22;47278;49.732;7.690;2023-02-28T17:28:32;2.50;99.90
61412;DHT22;47278;49.732;7.690;2023-02-28T17:30:57;2.40;99.90
61412;DHT22;47278;49.732;7.690;2023-02-28T17:33:23;2.30;99.90
61412;DHT22;47278;49.732;7.690;2023-02-28T17:35:48;2.20;99.90
61412;DHT22;47278;49.732;7.690;2023-02-28T17:38:18;2.10;99.90
61412;DHT22;47278;49.732;7.690;2023-02-28T17:40:44;2.20;99.90
61412;DHT22;47278;49.732;7.690;2023-02-28T17:43:09;4.90;99.90
61412;DHT22;47278;49.732;7.690;2023-02-28T17:45:35;2.00;99.90
61412;DHT22;47278;49.732;7.690;2023-02-28T17:48:01;1.90;99.90
61412;DHT22;47278;49.732;7.690;2023-02-28T17:50:26;1.90;99.90
61412;DHT22;47278;49.732;7.690;2023-02-28T17:52:52;1.80;99.90
61412;DHT22;47278;49.732;7.690;2023-02-28T17:55:18;1.80;99.90
61412;DHT22;47278;49.732;7.690;2023-02-28T17:57:47;4.70;99.90
61412;DHT22;47278;49.732;7.690;2023-02-28T18:00:13;1.70;99.90
61412;DHT22;47278;49.732;7.690;2023-02-28T18:02:41;1.60;99.90
61412;DHT22;47278;49.732;7.690;2023-02-28T18:05:08;1.60;99.90
61412;DHT22;47278;49.732;7.690;2023-02-28T18:07:35;1.80;99.90
61412;DHT22;47278;49.732;7.690;2023-02-28T18:10:02;1.80;99.90